Time;durP1;ratioP1;P1;durP2;ratioP2;P2;SDS_P1;SDS_P2;PMS_P1;PMS_P2;Temp;Humidity;BMP_temperature;BMP_pressure;BME280_temperature;BME280_humidity;BME280_pressure;Samples;Min_cycle;Max_cycle;Signal;HPM_P1;HPM_P2
2022/04/24 00:02:07;;;;;;;28.80;27.00;;;;;;;;;;5015133;28;20476;-87
2022/04/24 00:04:35;;;;;;;27.87;26.13;;;;;;;;;;5014744;28;20466;-87
2022/04/24 00:07:03;;;;;;;28.17;26.37;;;;;;;;;;5014990;28;20474;-87
2022/04/24 00:09:31;;;;;;;27.57;25.77;;;;;;;;;;5015428;28;20428;-87
2022/04/24 00:11:59;;;;;;;28.40;26.60;;;;;;;;;;5015572;28;20428;-87
2022/04/24 00:14:26;;;;;;;28.23;26.50;;;;;;;;;;5015475;28;20852;-87
2022/04/24 00:16:54;;;;;;;27.80;26.07;;;;;;;;;;5015374;28;20803;-87
2022/04/24 00:19:21;;;;;;;28.50;26.70;;;;;;;;;;5015085;28;20431;-87
2022/04/24 00:21:48;;;;;;;24.87;23.37;;;;;;;;;;4997893;28;20423;-87
2022/04/24 00:24:16;;;;;;;28.20;26.40;;;;;;;;;;5015181;28;20795;-87
2022/04/24 00:26:44;;;;;;;28.80;27.00;;;;;;;;;;5015084;28;20923;-88
2022/04/24 00:29:12;;;;;;;29.20;27.20;;;;;;;;;;4997465;28;20420;-87
2022/04/24 00:31:39;;;;;;;28.87;27.00;;;;;;;;;;4997045;28;20917;-87
2022/04/24 00:34:07;;;;;;;28.60;26.70;;;;;;;;;;5014684;28;20487;-87
2022/04/24 00:36:34;;;;;;;27.47;25.87;;;;;;;;;;5014970;28;20432;-87
2022/04/24 00:39:01;;;;;;;29.13;27.30;;;;;;;;;;5014894;28;20412;-87
2022/04/24 00:41:29;;;;;;;29.37;27.17;;;;;;;;;;5014777;28;20424;-87
2022/04/24 00:43:57;;;;;;;30.20;28.10;;;;;;;;;;5014784;28;20470;-86
2022/04/24 00:46:34;;;;;;;28.27;26.47;;;;;;;;;;5014386;28;20412;-86
2022/04/24 00:49:01;;;;;;;28.57;26.77;;;;;;;;;;5014832;28;20400;-87
2022/04/24 00:51:30;;;;;;;28.77;26.90;;;;;;;;;;5014514;28;20448;-87
2022/04/24 00:53:57;;;;;;;27.97;25.93;;;;;;;;;;5014902;28;20453;-87
2022/04/24 00:56:30;;;;;;;28.63;26.63;;;;;;;;;;5014320;28;20459;-87
2022/04/24 00:59:00;;;;;;;29.00;27.00;;;;;;;;;;5014441;28;20845;-87
2022/04/24 01:01:27;;;;;;;29.00;27.00;;;;;;;;;;5014520;28;20416;-87
2022/04/24 01:03:55;;;;;;;28.23;26.23;;;;;;;;;;5013587;28;20489;-86
2022/04/24 01:06:23;;;;;;;29.30;27.30;;;;;;;;;;4997128;28;20453;-87
2022/04/24 01:08:50;;;;;;;28.30;26.50;;;;;;;;;;5014437;28;20496;-87
2022/04/24 01:11:18;;;;;;;29.07;27.10;;;;;;;;;;5014416;28;20441;-87
2022/04/24 01:13:45;;;;;;;27.37;25.63;;;;;;;;;;5014396;28;20479;-86
2022/04/24 01:16:14;;;;;;;28.53;26.63;;;;;;;;;;5014128;28;20441;-87
2022/04/24 01:18:43;;;;;;;27.80;25.90;;;;;;;;;;5014631;28;20449;-86
2022/04/24 01:21:11;;;;;;;28.63;26.53;;;;;;;;;;5014062;28;20527;-87
2022/04/24 01:23:39;;;;;;;28.03;26.23;;;;;;;;;;5013876;28;20514;-87
2022/04/24 01:26:07;;;;;;;31.70;29.33;;;;;;;;;;5014182;28;20441;-87
2022/04/24 01:28:34;;;;;;;28.83;26.90;;;;;;;;;;5014295;28;20445;-87
2022/04/24 01:31:01;;;;;;;28.23;26.33;;;;;;;;;;5014402;28;20445;-86
2022/04/24 01:33:29;;;;;;;27.67;25.90;;;;;;;;;;5013976;28;20470;-87
2022/04/24 01:35:56;;;;;;;28.70;26.80;;;;;;;;;;5013677;28;20435;-87
2022/04/24 01:38:28;;;;;;;27.37;25.67;;;;;;;;;;5014280;28;20471;-88
2022/04/24 01:40:56;;;;;;;27.37;25.77;;;;;;;;;;5014199;28;20482;-87
2022/04/24 01:43:23;;;;;;;28.20;26.40;;;;;;;;;;5014256;28;20484;-86
2022/04/24 01:45:51;;;;;;;26.23;24.53;;;;;;;;;;5013520;28;20437;-86
2022/04/24 01:48:19;;;;;;;28.80;27.00;;;;;;;;;;5014043;28;21113;-87
2022/04/24 01:50:47;;;;;;;27.87;25.97;;;;;;;;;;5013971;28;20544;-87
2022/04/24 01:53:14;;;;;;;27.83;26.13;;;;;;;;;;4996993;28;20555;-86
2022/04/24 01:55:43;;;;;;;28.43;26.63;;;;;;;;;;5014115;28;20412;-87
2022/04/24 01:58:10;;;;;;;28.03;26.27;;;;;;;;;;5013675;28;20827;-87
2022/04/24 02:00:38;;;;;;;28.07;26.27;;;;;;;;;;5014144;28;20453;-87
2022/04/24 02:03:05;;;;;;;28.53;26.57;;;;;;;;;;5013718;28;20525;-87
2022/04/24 02:05:32;;;;;;;27.67;25.87;;;;;;;;;;5013851;28;20472;-87
2022/04/24 02:08:00;;;;;;;28.63;26.90;;;;;;;;;;5013815;28;20449;-86
2022/04/24 02:10:27;;;;;;;28.23;26.43;;;;;;;;;;5013819;28;20437;-87
2022/04/24 02:12:56;;;;;;;26.03;24.33;;;;;;;;;;5013741;28;20543;-87
2022/04/24 02:15:23;;;;;;;27.60;25.80;;;;;;;;;;5017112;28;20448;-87
2022/04/24 02:17:51;;;;;;;26.80;25.10;;;;;;;;;;5017458;28;20490;-87
2022/04/24 02:20:18;;;;;;;27.20;25.33;;;;;;;;;;5017719;28;20415;-87
2022/04/24 02:22:45;;;;;;;26.37;24.67;;;;;;;;;;5016923;28;20459;-86
2022/04/24 02:25:13;;;;;;;26.20;24.60;;;;;;;;;;5017587;28;20448;-87
2022/04/24 02:27:40;;;;;;;28.70;26.60;;;;;;;;;;5017001;28;20482;-87
2022/04/24 02:30:10;;;;;;;28.80;26.90;;;;;;;;;;5017412;28;20934;-87
2022/04/24 02:32:37;;;;;;;26.80;25.10;;;;;;;;;;5016738;28;20464;-87
2022/04/24 02:35:05;;;;;;;26.93;25.13;;;;;;;;;;5017273;28;20461;-88
2022/04/24 02:37:33;;;;;;;27.43;25.73;;;;;;;;;;5016856;28;20484;-88
2022/04/24 02:40:00;;;;;;;27.17;25.20;;;;;;;;;;5017328;28;20476;-88
2022/04/24 02:42:28;;;;;;;27.50;25.70;;;;;;;;;;5017131;28;20458;-88
2022/04/24 02:44:55;;;;;;;26.00;24.40;;;;;;;;;;5017204;28;20453;-88
2022/04/24 02:47:24;;;;;;;26.90;25.00;;;;;;;;;;5017141;28;20477;-88
2022/04/24 02:49:51;;;;;;;26.80;25.10;;;;;;;;;;5016919;28;21061;-86
2022/04/24 02:52:18;;;;;;;28.10;26.10;;;;;;;;;;5016980;28;20420;-88
2022/04/24 02:54:45;;;;;;;27.03;25.23;;;;;;;;;;5016865;28;20468;-87
2022/04/24 02:57:13;;;;;;;27.17;25.53;;;;;;;;;;5016934;28;20437;-87
2022/04/24 02:59:44;;;;;;;26.63;24.93;;;;;;;;;;4999406;28;20548;-87
2022/04/24 03:02:12;;;;;;;26.63;24.83;;;;;;;;;;5017021;28;20440;-87
2022/04/24 03:04:41;;;;;;;24.97;23.30;;;;;;;;;;5016398;28;20470;-87
2022/04/24 03:07:08;;;;;;;27.67;25.87;;;;;;;;;;5016493;28;20505;-87
2022/04/24 03:09:36;;;;;;;26.73;25.13;;;;;;;;;;5016024;28;20460;-87
2022/04/24 03:12:03;;;;;;;26.40;24.50;;;;;;;;;;4999087;28;20445;-88
2022/04/24 03:14:31;;;;;;;27.27;25.37;;;;;;;;;;5016489;28;20456;-86
2022/04/24 03:16:58;;;;;;;27.60;25.53;;;;;;;;;;5016109;28;20457;-87
2022/04/24 03:19:25;;;;;;;26.60;25.00;;;;;;;;;;5016269;28;20437;-87
2022/04/24 03:21:54;;;;;;;26.47;24.67;;;;;;;;;;5016796;28;20448;-87
2022/04/24 03:24:22;;;;;;;27.80;25.67;;;;;;;;;;5016348;28;20492;-87
2022/04/24 03:26:50;;;;;;;25.80;24.10;;;;;;;;;;5015596;28;20445;-87
2022/04/24 03:29:17;;;;;;;26.00;24.40;;;;;;;;;;5016208;28;20927;-88
2022/04/24 03:31:44;;;;;;;25.07;23.50;;;;;;;;;;5016241;28;20433;-88
2022/04/24 03:34:12;;;;;;;25.73;24.00;;;;;;;;;;5015930;28;20488;-88
2022/04/24 03:36:39;;;;;;;26.67;25.07;;;;;;;;;;5015942;28;20445;-88
2022/04/24 03:39:08;;;;;;;26.57;24.73;;;;;;;;;;5015974;28;20441;-88
2022/04/24 03:41:35;;;;;;;25.63;23.97;;;;;;;;;;5016355;28;20444;-87
2022/04/24 03:44:03;;;;;;;27.13;25.33;;;;;;;;;;5015739;28;20463;-87
2022/04/24 03:46:30;;;;;;;27.40;25.53;;;;;;;;;;4998270;28;20755;-87
2022/04/24 03:48:57;;;;;;;25.50;23.90;;;;;;;;;;5015970;28;20411;-87
2022/04/24 03:51:25;;;;;;;26.50;24.90;;;;;;;;;;5015985;28;20779;-88
2022/04/24 03:53:52;;;;;;;26.97;25.27;;;;;;;;;;5015587;28;20495;-88
2022/04/24 03:56:21;;;;;;;26.87;25.17;;;;;;;;;;4998076;28;20452;-87
2022/04/24 03:58:49;;;;;;;25.65;24.05;;;;;;;;;;5015792;28;20415;-86
2022/04/24 04:01:16;;;;;;;26.77;24.53;;;;;;;;;;5015683;28;20680;-88
2022/04/24 04:03:43;;;;;;;25.40;23.70;;;;;;;;;;5015157;28;20459;-87
2022/04/24 04:06:11;;;;;;;25.23;23.43;;;;;;;;;;5015596;28;20431;-87
2022/04/24 04:08:38;;;;;;;24.90;23.30;;;;;;;;;;5015914;28;20484;-87
2022/04/24 04:11:07;;;;;;;24.93;23.23;;;;;;;;;;5016751;28;20445;-89
2022/04/24 04:13:36;;;;;;;26.07;24.47;;;;;;;;;;5015378;28;20515;-87
2022/04/24 04:16:04;;;;;;;26.10;24.43;;;;;;;;;;5015419;28;20439;-87
2022/04/24 04:18:31;;;;;;;26.87;24.90;;;;;;;;;;5014450;28;20433;-84
2022/04/24 04:20:59;;;;;;;26.23;24.43;;;;;;;;;;5014548;28;20440;-84
2022/04/24 04:23:26;;;;;;;26.53;24.87;;;;;;;;;;4997298;28;20469;-84
2022/04/24 04:25:53;;;;;;;25.37;23.77;;;;;;;;;;5014584;28;20527;-84
2022/04/24 04:28:21;;;;;;;24.90;23.30;;;;;;;;;;5014078;28;20445;-84
2022/04/24 04:30:49;;;;;;;25.70;24.10;;;;;;;;;;5014404;28;20483;-84
2022/04/24 04:33:17;;;;;;;25.55;23.80;;;;;;;;;;5014138;28;20497;-84
2022/04/24 04:35:45;;;;;;;25.07;23.57;;;;;;;;;;5014098;28;20237;-84
2022/04/24 04:38:14;;;;;;;25.00;23.30;;;;;;;;;;5014361;28;20524;-85
2022/04/24 04:40:42;;;;;;;25.30;23.50;;;;;;;;;;5014414;28;20864;-84
2022/04/24 04:43:09;;;;;;;25.90;24.30;;;;;;;;;;5013963;28;20959;-84
2022/04/24 04:45:36;;;;;;;26.70;24.90;;;;;;;;;;5014196;28;20457;-84
2022/04/24 04:48:05;;;;;;;26.20;24.30;;;;;;;;;;5013942;28;20445;-84
2022/04/24 04:50:34;;;;;;;25.10;23.40;;;;;;;;;;5014092;28;20823;-84
2022/04/24 04:53:01;;;;;;;26.83;24.80;;;;;;;;;;5014016;28;21018;-84
2022/04/24 04:55:28;;;;;;;27.47;25.50;;;;;;;;;;5013851;28;20443;-84
2022/04/24 04:57:57;;;;;;;25.70;24.00;;;;;;;;;;5014174;28;20446;-84
2022/04/24 05:00:25;;;;;;;26.80;25.00;;;;;;;;;;5013776;28;20807;-84
2022/04/24 05:02:53;;;;;;;25.00;23.40;;;;;;;;;;5013958;28;20476;-84
2022/04/24 05:05:22;;;;;;;26.30;24.60;;;;;;;;;;5013585;28;20226;-84
2022/04/24 05:07:49;;;;;;;26.97;25.13;;;;;;;;;;5013956;28;20732;-84
2022/04/24 05:10:16;;;;;;;28.37;26.37;;;;;;;;;;5014236;28;20445;-84
2022/04/24 05:12:44;;;;;;;27.03;25.20;;;;;;;;;;5013496;28;20894;-84
2022/04/24 05:15:13;;;;;;;25.25;23.63;;;;;;;;;;5013596;28;20419;-84
2022/04/24 05:17:42;;;;;;;27.80;25.90;;;;;;;;;;4996147;28;20202;-83
2022/04/24 05:20:10;;;;;;;27.08;25.15;;;;;;;;;;5013413;28;20918;-84
2022/04/24 05:22:39;;;;;;;25.23;23.70;;;;;;;;;;5013607;28;20672;-84
2022/04/24 05:25:09;;;;;;;26.40;24.60;;;;;;;;;;5013605;28;20475;-84
2022/04/24 05:27:37;;;;;;;27.07;25.27;;;;;;;;;;5013526;28;20442;-84
2022/04/24 05:30:05;;;;;;;28.03;26.10;;;;;;;;;;5013269;28;20961;-84
2022/04/24 05:32:39;;;;;;;26.27;24.67;;;;;;;;;;5012970;28;20446;-84
2022/04/24 05:35:07;;;;;;;25.40;23.80;;;;;;;;;;5013284;28;20418;-82
2022/04/24 05:37:34;;;;;;;25.73;24.13;;;;;;;;;;5012830;28;20484;-83
2022/04/24 05:40:05;;;;;;;27.20;25.00;;;;;;;;;;5013375;28;20439;-84
2022/04/24 05:42:32;;;;;;;25.27;23.77;;;;;;;;;;5013081;28;20440;-84
2022/04/24 05:45:00;;;;;;;25.90;24.30;;;;;;;;;;5013460;28;20527;-85
2022/04/24 05:47:28;;;;;;;26.73;24.83;;;;;;;;;;4979551;28;20470;-82
2022/04/24 05:49:56;;;;;;;26.25;24.55;;;;;;;;;;4998176;28;20465;-84
2022/04/24 05:52:24;;;;;;;27.37;25.57;;;;;;;;;;5017412;28;20197;-84
2022/04/24 05:54:51;;;;;;;25.23;23.53;;;;;;;;;;5017215;28;20436;-84
2022/04/24 05:57:20;;;;;;;24.90;23.40;;;;;;;;;;5016831;28;20544;-83
2022/04/24 05:59:47;;;;;;;25.60;23.90;;;;;;;;;;5016983;28;20942;-84
2022/04/24 06:02:14;;;;;;;25.40;23.67;;;;;;;;;;5016780;28;20506;-83
2022/04/24 06:04:42;;;;;;;25.40;23.60;;;;;;;;;;5016979;28;20485;-84
2022/04/24 06:07:10;;;;;;;25.00;23.40;;;;;;;;;;5016654;28;20448;-83
2022/04/24 06:09:37;;;;;;;23.40;22.10;;;;;;;;;;5016890;28;20461;-83
2022/04/24 06:12:04;;;;;;;24.77;23.23;;;;;;;;;;5016698;28;20412;-84
2022/04/24 06:14:34;;;;;;;26.03;24.33;;;;;;;;;;5016703;28;20440;-84
2022/04/24 06:17:03;;;;;;;25.33;23.73;;;;;;;;;;5016416;28;20408;-84
2022/04/24 06:19:30;;;;;;;25.33;23.73;;;;;;;;;;5016732;28;20460;-84
2022/04/24 06:21:59;;;;;;;26.07;24.33;;;;;;;;;;5016370;28;20448;-84
2022/04/24 06:24:26;;;;;;;25.83;24.13;;;;;;;;;;5016824;28;20471;-84
2022/04/24 06:26:54;;;;;;;26.00;24.40;;;;;;;;;;5016445;28;20918;-84
2022/04/24 06:29:21;;;;;;;25.50;23.83;;;;;;;;;;5016501;28;20495;-84
2022/04/24 06:31:50;;;;;;;26.30;24.50;;;;;;;;;;5016386;28;20954;-83
2022/04/24 06:34:18;;;;;;;27.27;25.30;;;;;;;;;;5015782;28;20492;-84
2022/04/24 06:36:45;;;;;;;26.30;24.37;;;;;;;;;;5016017;28;20441;-84
2022/04/24 06:39:12;;;;;;;26.27;24.47;;;;;;;;;;4999194;28;20759;-83
2022/04/24 06:41:40;;;;;;;26.80;24.80;;;;;;;;;;5016688;28;20445;-84
2022/04/24 06:44:07;;;;;;;24.83;23.30;;;;;;;;;;5016997;28;20477;-84
2022/04/24 06:46:34;;;;;;;26.03;24.20;;;;;;;;;;5016800;28;20457;-84
2022/04/24 06:49:03;;;;;;;26.30;24.50;;;;;;;;;;5016316;28;20460;-84
2022/04/24 06:51:30;;;;;;;26.90;25.10;;;;;;;;;;5015912;28;20973;-84
2022/04/24 06:53:58;;;;;;;27.27;25.37;;;;;;;;;;5015994;28;20472;-84
2022/04/24 06:56:25;;;;;;;25.63;23.90;;;;;;;;;;5015910;28;20449;-84
2022/04/24 06:58:53;;;;;;;25.53;24.03;;;;;;;;;;5016024;28;20511;-84
2022/04/24 07:01:21;;;;;;;26.17;24.47;;;;;;;;;;4997152;28;20416;-84
2022/04/24 07:03:48;;;;;;;27.07;25.23;;;;;;;;;;5015649;28;20422;-83
2022/04/24 07:06:17;;;;;;;26.40;24.50;;;;;;;;;;5015496;28;20449;-83
2022/04/24 07:08:45;;;;;;;26.70;24.80;;;;;;;;;;5015604;28;20759;-82
2022/04/24 07:11:12;;;;;;;27.63;25.63;;;;;;;;;;5015325;28;20420;-82
2022/04/24 07:13:40;;;;;;;27.40;25.50;;;;;;;;;;5015492;28;20441;-82
2022/04/24 07:16:08;;;;;;;26.43;24.63;;;;;;;;;;5014938;28;20818;-81
2022/04/24 07:18:35;;;;;;;26.37;24.57;;;;;;;;;;5015192;28;20961;-82
2022/04/24 07:21:03;;;;;;;27.70;25.90;;;;;;;;;;5015323;28;20447;-82
2022/04/24 07:23:31;;;;;;;25.70;24.10;;;;;;;;;;5015472;28;20442;-85
2022/04/24 07:25:59;;;;;;;27.10;25.30;;;;;;;;;;5015259;28;20493;-83
2022/04/24 07:28:26;;;;;;;28.53;26.43;;;;;;;;;;5015150;28;20470;-84
2022/04/24 07:30:54;;;;;;;28.27;26.27;;;;;;;;;;5014908;28;20423;-83
2022/04/24 07:33:21;;;;;;;27.67;25.87;;;;;;;;;;5014939;28;20495;-83
2022/04/24 07:35:48;;;;;;;27.47;25.67;;;;;;;;;;5015246;28;20451;-83
2022/04/24 07:38:15;;;;;;;27.50;25.50;;;;;;;;;;5015205;28;20408;-84
2022/04/24 07:40:49;;;;;;;27.83;25.90;;;;;;;;;;5014851;28;20803;-82
2022/04/24 07:43:16;;;;;;;27.10;25.20;;;;;;;;;;5014860;28;20445;-83
2022/04/24 07:45:47;;;;;;;25.97;24.33;;;;;;;;;;5015085;28;20485;-84
2022/04/24 07:48:14;;;;;;;26.50;24.70;;;;;;;;;;5014746;28;20523;-84
2022/04/24 07:50:43;;;;;;;28.07;26.20;;;;;;;;;;5014602;28;21002;-90
2022/04/24 07:53:12;;;;;;;27.50;25.70;;;;;;;;;;4996893;28;20453;-80
2022/04/24 07:55:41;;;;;;;26.80;24.93;;;;;;;;;;5014311;28;20838;-81
2022/04/24 07:58:10;;;;;;;26.50;24.47;;;;;;;;;;5014900;28;20448;-83
2022/04/24 08:00:38;;;;;;;29.20;27.20;;;;;;;;;;5014662;28;20441;-84
2022/04/24 08:03:07;;;;;;;27.80;25.70;;;;;;;;;;5014375;28;20437;-83
2022/04/24 08:05:36;;;;;;;27.73;25.93;;;;;;;;;;4996855;28;21033;-83
2022/04/24 08:08:04;;;;;;;28.10;26.30;;;;;;;;;;5014800;28;20477;-84
2022/04/24 08:10:35;;;;;;;28.20;26.20;;;;;;;;;;5012074;28;20433;-83
2022/04/24 08:13:04;;;;;;;26.90;25.30;;;;;;;;;;4992245;28;20473;-84
2022/04/24 08:15:33;;;;;;;28.10;26.10;;;;;;;;;;4995009;28;20564;-84
2022/04/24 08:18:00;;;;;;;28.13;25.87;;;;;;;;;;4994184;28;20541;-83
2022/04/24 08:20:27;;;;;;;29.30;27.50;;;;;;;;;;4994616;28;20458;-84
2022/04/24 08:22:57;;;;;;;29.67;27.70;;;;;;;;;;4994508;28;20442;-83
2022/04/24 08:25:26;;;;;;;27.97;26.07;;;;;;;;;;4994715;28;20467;-83
2022/04/24 08:27:54;;;;;;;30.07;27.80;;;;;;;;;;4994458;28;20430;-84
2022/04/24 08:30:23;;;;;;;29.87;27.70;;;;;;;;;;4994214;28;20481;-83
2022/04/24 08:32:53;;;;;;;27.77;25.83;;;;;;;;;;4993918;28;20489;-83
2022/04/24 08:35:21;;;;;;;28.60;26.60;;;;;;;;;;4993947;28;20424;-83
2022/04/24 08:37:48;;;;;;;28.83;26.60;;;;;;;;;;4994160;28;20477;-83
2022/04/24 08:40:17;;;;;;;28.37;26.37;;;;;;;;;;4994280;28;20413;-82
2022/04/24 08:42:45;;;;;;;28.80;26.73;;;;;;;;;;4994104;28;20476;-83
2022/04/24 08:45:13;;;;;;;29.37;27.20;;;;;;;;;;4993884;28;20489;-82
2022/04/24 08:47:40;;;;;;;28.70;26.87;;;;;;;;;;4993453;28;20493;-82
2022/04/24 08:50:10;;;;;;;28.47;26.57;;;;;;;;;;4992009;28;20477;-83
2022/04/24 08:52:38;;;;;;;29.53;27.43;;;;;;;;;;4993974;28;20442;-82
2022/04/24 08:55:06;;;;;;;27.90;26.10;;;;;;;;;;4994263;28;20444;-83
2022/04/24 08:57:33;;;;;;;29.03;26.83;;;;;;;;;;4994355;28;20508;-89
2022/04/24 09:00:02;;;;;;;28.03;26.10;;;;;;;;;;4993950;28;20942;-82
2022/04/24 09:02:29;;;;;;;28.00;26.10;;;;;;;;;;4993657;28;20899;-84
2022/04/24 09:04:56;;;;;;;28.70;26.70;;;;;;;;;;4976255;28;20448;-83
2022/04/24 09:07:31;;;;;;;30.00;27.30;;;;;;;;;;4994053;28;20461;-82
2022/04/24 09:09:58;;;;;;;28.40;26.20;;;;;;;;;;4993874;28;20959;-81
2022/04/24 09:12:26;;;;;;;27.90;26.00;;;;;;;;;;4993835;28;20434;-83
2022/04/24 09:14:55;;;;;;;28.97;26.70;;;;;;;;;;4993555;28;20420;-80
2022/04/24 09:17:23;;;;;;;28.13;26.23;;;;;;;;;;4993659;28;20416;-82
2022/04/24 09:19:51;;;;;;;28.97;26.67;;;;;;;;;;4993911;28;20439;-82
2022/04/24 09:22:19;;;;;;;26.33;24.53;;;;;;;;;;4993662;28;20416;-83
2022/04/24 09:24:49;;;;;;;28.93;26.80;;;;;;;;;;4992699;28;20420;-82
2022/04/24 09:27:24;;;;;;;30.20;28.20;;;;;;;;;;4993322;28;20435;-82
2022/04/24 09:29:52;;;;;;;27.97;26.03;;;;;;;;;;4993340;28;20776;-81
2022/04/24 09:32:20;;;;;;;28.83;26.83;;;;;;;;;;4992979;28;20428;-81
2022/04/24 09:34:47;;;;;;;27.70;25.70;;;;;;;;;;4993631;28;20412;-81
2022/04/24 09:37:15;;;;;;;28.87;26.77;;;;;;;;;;4993313;28;20429;-82
2022/04/24 09:39:42;;;;;;;27.13;25.10;;;;;;;;;;4993307;28;20517;-82
2022/04/24 09:42:12;;;;;;;28.77;26.73;;;;;;;;;;4993147;28;20418;-83
2022/04/24 09:44:43;;;;;;;28.80;26.73;;;;;;;;;;4993243;28;20984;-82
2022/04/24 09:47:10;;;;;;;27.47;25.67;;;;;;;;;;4993443;28;20468;-82
2022/04/24 09:49:38;;;;;;;29.20;27.00;;;;;;;;;;4993141;28;20477;-82
2022/04/24 09:52:10;;;;;;;29.33;26.97;;;;;;;;;;4993353;28;20932;-82
2022/04/24 09:54:38;;;;;;;27.00;25.10;;;;;;;;;;4993458;28;20424;-82
2022/04/24 09:57:06;;;;;;;28.23;26.23;;;;;;;;;;4993365;28;20788;-82
2022/04/24 09:59:36;;;;;;;27.70;25.90;;;;;;;;;;4993198;28;20434;-85
2022/04/24 10:02:04;;;;;;;27.30;25.40;;;;;;;;;;4993219;28;20844;-89
2022/04/24 10:04:34;;;;;;;27.33;25.43;;;;;;;;;;4994608;28;20432;-82
2022/04/24 10:07:01;;;;;;;25.93;24.23;;;;;;;;;;4994040;28;20543;-83
2022/04/24 10:09:30;;;;;;;27.10;25.30;;;;;;;;;;4992949;28;20468;-84
2022/04/24 10:12:02;;;;;;;28.30;26.17;;;;;;;;;;4993321;28;20453;-84
2022/04/24 10:14:30;;;;;;;28.73;26.33;;;;;;;;;;4993159;28;20429;-83
2022/04/24 10:17:07;;;;;;;27.53;25.53;;;;;;;;;;4993057;28;20940;-84
2022/04/24 10:19:56;;;;;;;26.50;24.70;;;;;;;;;;4993271;28;20481;-83
2022/04/24 10:22:31;;;;;;;27.90;25.90;;;;;;;;;;4993502;28;20438;-82
2022/04/24 10:25:01;;;;;;;27.47;25.50;;;;;;;;;;4992981;28;20420;-83
2022/04/24 10:27:37;;;;;;;28.27;26.27;;;;;;;;;;4993021;28;20419;-83
2022/04/24 10:30:05;;;;;;;29.17;26.90;;;;;;;;;;4993172;28;20434;-84
2022/04/24 10:32:34;;;;;;;26.97;25.13;;;;;;;;;;4992927;28;21010;-84
2022/04/24 10:35:01;;;;;;;27.50;25.70;;;;;;;;;;4994056;28;20801;-83
2022/04/24 10:37:30;;;;;;;27.30;25.40;;;;;;;;;;4996913;28;20447;-84
2022/04/24 10:39:58;;;;;;;27.77;25.87;;;;;;;;;;4996425;28;20903;-84
2022/04/24 10:42:33;;;;;;;27.23;25.23;;;;;;;;;;4996932;28;20438;-84
2022/04/24 10:45:05;;;;;;;27.03;24.93;;;;;;;;;;4996289;28;20924;-84
2022/04/24 10:47:43;;;;;;;27.47;25.40;;;;;;;;;;4996489;28;20433;-84
2022/04/24 10:50:10;;;;;;;27.27;25.17;;;;;;;;;;4996345;28;20476;-84
2022/04/24 10:52:42;;;;;;;26.47;24.57;;;;;;;;;;4996529;28;20452;-84
2022/04/24 10:55:10;;;;;;;28.03;26.07;;;;;;;;;;4996374;28;20442;-86
2022/04/24 10:57:42;;;;;;;27.33;25.63;;;;;;;;;;4996342;28;20442;-84
2022/04/24 11:00:16;;;;;;;27.37;25.33;;;;;;;;;;4996236;28;20922;-81
2022/04/24 11:02:44;;;;;;;28.30;26.50;;;;;;;;;;4996548;28;20849;-84
2022/04/24 11:05:12;;;;;;;27.57;25.67;;;;;;;;;;4995874;28;20413;-84
2022/04/24 11:07:39;;;;;;;27.63;25.63;;;;;;;;;;4996006;28;20428;-83
2022/04/24 11:10:09;;;;;;;29.40;27.60;;;;;;;;;;4996037;28;20450;-83
2022/04/24 11:12:37;;;;;;;29.30;27.30;;;;;;;;;;4995429;28;20458;-83
2022/04/24 11:15:08;;;;;;;29.03;27.00;;;;;;;;;;4996011;28;20450;-84
2022/04/24 11:17:36;;;;;;;30.43;28.23;;;;;;;;;;4995764;28;20417;-84
2022/04/24 11:20:08;;;;;;;28.53;26.53;;;;;;;;;;4995843;28;21079;-82
2022/04/24 11:22:44;;;;;;;31.27;29.10;;;;;;;;;;4996058;28;20436;-84
2022/04/24 11:25:14;;;;;;;29.23;27.33;;;;;;;;;;4995421;28;20450;-84
2022/04/24 11:27:43;;;;;;;30.47;28.37;;;;;;;;;;4996017;28;20828;-84
2022/04/24 11:30:15;;;;;;;27.83;25.77;;;;;;;;;;4995741;28;20477;-84
2022/04/24 11:32:42;;;;;;;29.47;27.37;;;;;;;;;;4995367;28;20492;-84
2022/04/24 11:35:11;;;;;;;27.80;25.90;;;;;;;;;;4995407;28;20907;-83
2022/04/24 11:37:44;;;;;;;27.13;25.27;;;;;;;;;;4995308;28;20429;-84
2022/04/24 11:40:12;;;;;;;29.23;27.20;;;;;;;;;;4995367;28;20982;-83
2022/04/24 11:42:39;;;;;;;27.90;25.90;;;;;;;;;;4995565;28;20934;-83
2022/04/24 11:50:51;;;;;;;29.27;27.20;;;;;;;;;;4995334;28;20453;-83
2022/04/24 11:53:19;;;;;;;30.17;28.07;;;;;;;;;;4995191;28;20495;-82
2022/04/24 11:56:05;;;;;;;29.57;27.60;;;;;;;;;;4995315;28;20417;-83
2022/04/24 11:58:36;;;;;;;28.57;26.53;;;;;;;;;;4995018;28;20446;-83
2022/04/24 12:01:04;;;;;;;28.07;26.27;;;;;;;;;;4995128;28;20460;-84
2022/04/24 12:03:32;;;;;;;27.97;26.17;;;;;;;;;;4995118;28;20829;-84
2022/04/24 12:06:02;;;;;;;28.30;26.40;;;;;;;;;;4994588;28;20467;-83
2022/04/24 12:08:40;;;;;;;28.57;26.77;;;;;;;;;;4994802;28;20446;-83
2022/04/24 12:11:08;;;;;;;28.00;26.30;;;;;;;;;;4994749;28;20446;-84
2022/04/24 12:13:35;;;;;;;29.03;26.97;;;;;;;;;;4994634;28;20903;-83
2022/04/24 12:16:03;;;;;;;30.23;28.33;;;;;;;;;;4995003;28;20448;-84
2022/04/24 12:18:30;;;;;;;29.77;27.70;;;;;;;;;;4994747;28;20446;-83
2022/04/24 12:20:57;;;;;;;27.90;26.20;;;;;;;;;;4994747;28;20866;-83
2022/04/24 12:23:31;;;;;;;27.00;25.20;;;;;;;;;;4994689;28;20449;-84
2022/04/24 12:26:00;;;;;;;28.83;26.47;;;;;;;;;;4994553;28;20468;-82
2022/04/24 12:28:32;;;;;;;29.60;27.47;;;;;;;;;;4994287;28;20510;-84
2022/04/24 12:31:01;;;;;;;27.77;25.77;;;;;;;;;;4994668;28;20471;-83
2022/04/24 12:33:28;;;;;;;29.03;26.87;;;;;;;;;;4993984;28;20461;-84
2022/04/24 12:35:56;;;;;;;28.27;26.40;;;;;;;;;;4994241;28;20924;-83
2022/04/24 12:38:24;;;;;;;29.37;27.37;;;;;;;;;;4976789;28;20452;-83
2022/04/24 12:40:57;;;;;;;28.63;26.80;;;;;;;;;;4994171;28;20449;-83
2022/04/24 12:43:26;;;;;;;28.53;26.53;;;;;;;;;;4994565;28;20420;-84
2022/04/24 12:45:55;;;;;;;28.33;26.40;;;;;;;;;;4994049;28;20899;-83
2022/04/24 12:48:23;;;;;;;27.80;25.73;;;;;;;;;;4993998;28;20489;-83
2022/04/24 12:50:51;;;;;;;28.43;26.60;;;;;;;;;;4994106;28;20465;-84
2022/04/24 12:53:18;;;;;;;31.27;28.60;;;;;;;;;;4994161;28;20519;-84
2022/04/24 12:55:46;;;;;;;28.20;26.30;;;;;;;;;;4993998;28;20804;-84
2022/04/24 12:58:16;;;;;;;29.13;27.23;;;;;;;;;;4975568;28;20935;-84
2022/04/24 13:00:43;;;;;;;27.67;25.77;;;;;;;;;;4994067;28;20545;-84
2022/04/24 13:03:12;;;;;;;28.20;26.07;;;;;;;;;;4993796;28;20447;-84
2022/04/24 13:05:39;;;;;;;29.20;26.80;;;;;;;;;;4994182;28;20433;-85
2022/04/24 13:08:07;;;;;;;27.30;25.70;;;;;;;;;;4994271;28;21005;-85
2022/04/24 13:10:35;;;;;;;29.60;27.60;;;;;;;;;;4993896;28;20462;-85
2022/04/24 13:13:03;;;;;;;28.90;27.00;;;;;;;;;;4995107;28;20477;-85
2022/04/24 13:15:33;;;;;;;27.43;25.73;;;;;;;;;;4993978;28;20446;-84
2022/04/24 13:18:08;;;;;;;29.33;27.17;;;;;;;;;;4994098;28;20428;-84
2022/04/24 13:20:38;;;;;;;28.30;26.37;;;;;;;;;;4994215;28;20436;-85
2022/04/24 13:23:06;;;;;;;28.20;26.40;;;;;;;;;;4993760;28;20459;-84
2022/04/24 13:25:33;;;;;;;27.70;25.83;;;;;;;;;;4994030;28;20419;-84
2022/04/24 13:28:00;;;;;;;27.67;25.70;;;;;;;;;;4993565;28;20464;-84
2022/04/24 13:30:28;;;;;;;28.30;26.40;;;;;;;;;;4993737;28;20442;-84
2022/04/24 13:32:56;;;;;;;28.50;26.50;;;;;;;;;;4993269;28;20822;-85
2022/04/24 13:35:24;;;;;;;27.27;25.47;;;;;;;;;;4993988;28;20417;-84
2022/04/24 13:40:36;;;;;;;26.70;24.87;;;;;;;;;;4993816;28;20553;-85
2022/04/24 13:43:05;;;;;;;26.80;25.00;;;;;;;;;;4993818;28;20919;-85
2022/04/24 13:45:33;;;;;;;28.63;26.93;;;;;;;;;;4993989;28;20423;-84
2022/04/24 13:48:02;;;;;;;27.53;25.73;;;;;;;;;;4993843;28;20809;-85
2022/04/24 13:50:30;;;;;;;27.27;25.57;;;;;;;;;;4993581;28;20416;-85
2022/04/24 13:52:58;;;;;;;26.73;25.03;;;;;;;;;;4994029;28;20417;-85
2022/04/24 13:55:26;;;;;;;26.90;25.30;;;;;;;;;;4993563;28;20424;-85
2022/04/24 13:57:54;;;;;;;28.00;26.20;;;;;;;;;;4994004;28;20816;-84
2022/04/24 14:00:22;;;;;;;27.07;25.47;;;;;;;;;;4993725;28;20523;-85
2022/04/24 14:02:50;;;;;;;27.80;26.07;;;;;;;;;;4993684;28;20541;-85
2022/04/24 14:05:22;;;;;;;27.90;26.20;;;;;;;;;;4993526;28;20493;-85
2022/04/24 14:07:50;;;;;;;27.27;25.57;;;;;;;;;;4993414;28;20497;-82
2022/04/24 14:10:18;;;;;;;27.57;25.77;;;;;;;;;;4995207;28;20863;-83
2022/04/24 14:12:45;;;;;;;26.17;24.57;;;;;;;;;;4997261;28;20416;-83
2022/04/24 14:15:12;;;;;;;26.23;24.50;;;;;;;;;;4997116;28;20417;-83
2022/04/24 14:17:40;;;;;;;26.43;24.73;;;;;;;;;;4997057;28;20409;-83
2022/04/24 14:20:08;;;;;;;25.13;23.63;;;;;;;;;;4997351;28;20483;-83
2022/04/24 14:22:37;;;;;;;25.07;23.57;;;;;;;;;;4997335;28;20421;-83
2022/04/24 14:25:05;;;;;;;26.33;24.77;;;;;;;;;;4997343;28;20489;-83
2022/04/24 14:27:33;;;;;;;25.80;24.20;;;;;;;;;;4997059;28;20493;-83
2022/04/24 14:30:00;;;;;;;25.90;24.27;;;;;;;;;;4997317;28;20436;-83
2022/04/24 14:32:28;;;;;;;26.70;24.87;;;;;;;;;;4997101;28;20432;-86